sensor_id;sensor_type;location;lat;lon;timestamp;pressure;altitude;pressure_sealevel;temperature;humidity
33155;BME280;19511;42.682;23.332;2023-04-25T00:00:50;94434.44;;;10.50;100.00
33155;BME280;19511;42.682;23.332;2023-04-25T00:03:21;94434.03;;;10.52;100.00
33155;BME280;19511;42.682;23.332;2023-04-25T00:05:51;94429.53;;;10.58;100.00
33155;BME280;19511;42.682;23.332;2023-04-25T00:08:17;94405.97;;;10.70;100.00
33155;BME280;19511;42.682;23.332;2023-04-25T00:10:45;94411.97;;;10.85;100.00
33155;BME280;19511;42.682;23.332;2023-04-25T00:13:14;94387.59;;;10.96;100.00
33155;BME280;19511;42.682;23.332;2023-04-25T00:15:47;94356.94;;;10.70;100.00
33155;BME280;19511;42.682;23.332;2023-04-25T00:18:17;94383.44;;;10.88;100.00
33155;BME280;19511;42.682;23.332;2023-04-25T00:20:47;94366.81;;;10.71;100.00
33155;BME280;19511;42.682;23.332;2023-04-25T00:23:19;94376.53;;;10.80;100.00
33155;BME280;19511;42.682;23.332;2023-04-25T00:25:49;94387.03;;;10.68;100.00
33155;BME280;19511;42.682;23.332;2023-04-25T00:28:18;94374.31;;;10.54;100.00
33155;BME280;19511;42.682;23.332;2023-04-25T00:30:46;94291.56;;;9.90;100.00
33155;BME280;19511;42.682;23.332;2023-04-25T00:33:22;94366.59;;;10.25;100.00
33155;BME280;19511;42.682;23.332;2023-04-25T00:35:51;94383.25;;;10.22;100.00
33155;BME280;19511;42.682;23.332;2023-04-25T00:38:17;94384.63;;;10.13;100.00
33155;BME280;19511;42.682;23.332;2023-04-25T00:40:42;94366.28;;;10.03;100.00
33155;BME280;19511;42.682;23.332;2023-04-25T00:43:12;94375.63;;;10.09;100.00
33155;BME280;19511;42.682;23.332;2023-04-25T00:45:40;94358.50;;;9.98;100.00
33155;BME280;19511;42.682;23.332;2023-04-25T00:48:06;94373.22;;;10.11;100.00
33155;BME280;19511;42.682;23.332;2023-04-25T00:50:35;94314.00;;;9.72;100.00
33155;BME280;19511;42.682;23.332;2023-04-25T00:53:06;94374.91;;;10.05;100.00
33155;BME280;19511;42.682;23.332;2023-04-25T00:55:37;94358.28;;;9.89;100.00
33155;BME280;19511;42.682;23.332;2023-04-25T00:58:03;94277.47;;;9.44;100.00
33155;BME280;19511;42.682;23.332;2023-04-25T01:00:32;94384.06;;;10.22;100.00
33155;BME280;19511;42.682;23.332;2023-04-25T01:02:58;94389.00;;;10.31;100.00
33155;BME280;19511;42.682;23.332;2023-04-25T01:05:28;94386.25;;;10.31;100.00
33155;BME280;19511;42.682;23.332;2023-04-25T01:07:53;94363.69;;;10.33;100.00
33155;BME280;19511;42.682;23.332;2023-04-25T01:10:29;94355.78;;;10.15;100.00
33155;BME280;19511;42.682;23.332;2023-04-25T01:12:56;94345.28;;;10.26;100.00
33155;BME280;19511;42.682;23.332;2023-04-25T01:15:26;94344.25;;;10.20;100.00
33155;BME280;19511;42.682;23.332;2023-04-25T01:17:56;94339.84;;;10.02;100.00
33155;BME280;19511;42.682;23.332;2023-04-25T01:20:32;94336.72;;;10.20;100.00
33155;BME280;19511;42.682;23.332;2023-04-25T01:22:58;94334.72;;;10.21;100.00
33155;BME280;19511;42.682;23.332;2023-04-25T01:25:24;94327.44;;;10.10;100.00
33155;BME280;19511;42.682;23.332;2023-04-25T01:27:54;94334.59;;;10.08;100.00
33155;BME280;19511;42.682;23.332;2023-04-25T01:30:20;94332.41;;;9.99;100.00
33155;BME280;19511;42.682;23.332;2023-04-25T01:32:46;94316.22;;;9.81;100.00
33155;BME280;19511;42.682;23.332;2023-04-25T01:35:16;94342.00;;;9.94;100.00
33155;BME280;19511;42.682;23.332;2023-04-25T01:37:46;94347.09;;;9.96;100.00
33155;BME280;19511;42.682;23.332;2023-04-25T01:40:19;94344.19;;;10.03;100.00
33155;BME280;19511;42.682;23.332;2023-04-25T01:42:50;94329.94;;;9.85;100.00
33155;BME280;19511;42.682;23.332;2023-04-25T01:45:17;94354.53;;;9.79;100.00
33155;BME280;19511;42.682;23.332;2023-04-25T01:47:43;94327.13;;;9.68;100.00
33155;BME280;19511;42.682;23.332;2023-04-25T01:50:12;94345.94;;;9.73;100.00
33155;BME280;19511;42.682;23.332;2023-04-25T01:52:44;94346.31;;;9.75;100.00
33155;BME280;19511;42.682;23.332;2023-04-25T01:55:09;94354.38;;;9.66;100.00
33155;BME280;19511;42.682;23.332;2023-04-25T01:57:38;94321.00;;;9.37;100.00
33155;BME280;19511;42.682;23.332;2023-04-25T02:00:08;94271.94;;;9.04;100.00
33155;BME280;19511;42.682;23.332;2023-04-25T02:02:34;94351.75;;;9.59;100.00
33155;BME280;19511;42.682;23.332;2023-04-25T02:05:00;94362.06;;;9.55;100.00
33155;BME280;19511;42.682;23.332;2023-04-25T02:07:26;94351.81;;;9.55;100.00
33155;BME280;19511;42.682;23.332;2023-04-25T02:09:55;94352.34;;;9.70;100.00
33155;BME280;19511;42.682;23.332;2023-04-25T02:12:21;94330.25;;;9.70;100.00
33155;BME280;19511;42.682;23.332;2023-04-25T02:14:47;94337.03;;;9.66;100.00
33155;BME280;19511;42.682;23.332;2023-04-25T02:17:16;94326.97;;;9.55;100.00
33155;BME280;19511;42.682;23.332;2023-04-25T02:19:46;94332.16;;;9.73;100.00
33155;BME280;19511;42.682;23.332;2023-04-25T02:22:13;94321.81;;;9.77;100.00
33155;BME280;19511;42.682;23.332;2023-04-25T02:24:43;94318.78;;;9.72;100.00
33155;BME280;19511;42.682;23.332;2023-04-25T02:27:19;94321.41;;;9.59;100.00
33155;BME280;19511;42.682;23.332;2023-04-25T02:29:50;94309.06;;;9.43;100.00
33155;BME280;19511;42.682;23.332;2023-04-25T02:32:20;94245.91;;;9.05;100.00
33155;BME280;19511;42.682;23.332;2023-04-25T02:34:45;94310.41;;;9.55;100.00
33155;BME280;19511;42.682;23.332;2023-04-25T02:37:15;94307.66;;;9.55;100.00
33155;BME280;19511;42.682;23.332;2023-04-25T02:39:44;94310.59;;;9.44;100.00
33155;BME280;19511;42.682;23.332;2023-04-25T02:42:10;94311.53;;;9.38;100.00
33155;BME280;19511;42.682;23.332;2023-04-25T02:44:39;94302.59;;;9.30;100.00
33155;BME280;19511;42.682;23.332;2023-04-25T02:47:11;94300.97;;;9.32;100.00
33155;BME280;19511;42.682;23.332;2023-04-25T02:49:36;94287.53;;;9.14;100.00
33155;BME280;19511;42.682;23.332;2023-04-25T02:52:06;94211.75;;;8.55;100.00
33155;BME280;19511;42.682;23.332;2023-04-25T02:54:40;94270.94;;;8.94;100.00
33155;BME280;19511;42.682;23.332;2023-04-25T02:57:15;94293.38;;;9.17;100.00
33155;BME280;19511;42.682;23.332;2023-04-25T02:59:40;94278.81;;;9.16;100.00
33155;BME280;19511;42.682;23.332;2023-04-25T03:02:06;94302.03;;;9.19;100.00
33155;BME280;19511;42.682;23.332;2023-04-25T03:04:31;94293.03;;;9.14;100.00
33155;BME280;19511;42.682;23.332;2023-04-25T03:07:04;94297.97;;;9.03;100.00
33155;BME280;19511;42.682;23.332;2023-04-25T03:09:30;94299.38;;;8.91;100.00
33155;BME280;19511;42.682;23.332;2023-04-25T03:11:56;94295.53;;;9.05;100.00
33155;BME280;19511;42.682;23.332;2023-04-25T03:14:25;94287.59;;;8.87;100.00
33155;BME280;19511;42.682;23.332;2023-04-25T03:16:51;94298.44;;;8.74;100.00
33155;BME280;19511;42.682;23.332;2023-04-25T03:19:18;94298.41;;;8.78;100.00
33155;BME280;19511;42.682;23.332;2023-04-25T03:21:48;94303.25;;;8.70;100.00
33155;BME280;19511;42.682;23.332;2023-04-25T03:24:14;94293.78;;;8.71;100.00
33155;BME280;19511;42.682;23.332;2023-04-25T03:26:44;94284.28;;;8.72;100.00
33155;BME280;19511;42.682;23.332;2023-04-25T03:29:14;94276.75;;;8.53;100.00
33155;BME280;19511;42.682;23.332;2023-04-25T03:31:43;94268.00;;;8.58;100.00
33155;BME280;19511;42.682;23.332;2023-04-25T03:34:11;94289.63;;;8.83;100.00
33155;BME280;19511;42.682;23.332;2023-04-25T03:36:36;94281.19;;;8.94;100.00
33155;BME280;19511;42.682;23.332;2023-04-25T03:39:03;94284.78;;;8.91;100.00
33155;BME280;19511;42.682;23.332;2023-04-25T03:41:33;94280.22;;;8.80;100.00
33155;BME280;19511;42.682;23.332;2023-04-25T03:43:58;94187.38;;;8.26;100.00
33155;BME280;19511;42.682;23.332;2023-04-25T03:46:31;94289.03;;;8.95;100.00
33155;BME280;19511;42.682;23.332;2023-04-25T03:48:57;94274.81;;;8.97;100.00
33155;BME280;19511;42.682;23.332;2023-04-25T03:51:28;94289.31;;;9.25;100.00
33155;BME280;19511;42.682;23.332;2023-04-25T03:53:57;94286.53;;;9.25;100.00
33155;BME280;19511;42.682;23.332;2023-04-25T03:56:26;94287.84;;;9.17;100.00
33155;BME280;19511;42.682;23.332;2023-04-25T03:58:52;94287.81;;;9.20;100.00
33155;BME280;19511;42.682;23.332;2023-04-25T04:01:17;94266.16;;;9.19;100.00
33155;BME280;19511;42.682;23.332;2023-04-25T04:03:43;94285.94;;;9.37;100.00
33155;BME280;19511;42.682;23.332;2023-04-25T04:06:08;94301.78;;;9.53;100.00
33155;BME280;19511;42.682;23.332;2023-04-25T04:08:34;94274.81;;;9.41;100.00
33155;BME280;19511;42.682;23.332;2023-04-25T04:10:59;94273.47;;;9.49;100.00
33155;BME280;19511;42.682;23.332;2023-04-25T04:13:28;94290.53;;;9.64;100.00
33155;BME280;19511;42.682;23.332;2023-04-25T04:15:54;94308.66;;;9.65;100.00
33155;BME280;19511;42.682;23.332;2023-04-25T04:18:20;94299.72;;;9.77;100.00
33155;BME280;19511;42.682;23.332;2023-04-25T04:20:46;94306.03;;;9.78;100.00
33155;BME280;19511;42.682;23.332;2023-04-25T04:23:12;94302.19;;;9.92;100.00
33155;BME280;19511;42.682;23.332;2023-04-25T04:25:37;94302.44;;;9.97;100.00
33155;BME280;19511;42.682;23.332;2023-04-25T04:28:05;94292.72;;;9.93;100.00
33155;BME280;19511;42.682;23.332;2023-04-25T04:30:31;94290.63;;;9.97;100.00
33155;BME280;19511;42.682;23.332;2023-04-25T04:33:00;94283.69;;;9.89;100.00
33155;BME280;19511;42.682;23.332;2023-04-25T04:35:26;94286.56;;;10.02;100.00
33155;BME280;19511;42.682;23.332;2023-04-25T04:37:51;94288.13;;;10.03;100.00
33155;BME280;19511;42.682;23.332;2023-04-25T04:40:17;94296.84;;;10.01;100.00
33155;BME280;19511;42.682;23.332;2023-04-25T04:42:44;94294.78;;;10.05;100.00
33155;BME280;19511;42.682;23.332;2023-04-25T04:45:11;94205.22;;;9.50;100.00
33155;BME280;19511;42.682;23.332;2023-04-25T04:47:38;94287.31;;;10.06;100.00
33155;BME280;19511;42.682;23.332;2023-04-25T04:50:08;94239.50;;;9.89;100.00
33155;BME280;19511;42.682;23.332;2023-04-25T04:52:35;94296.88;;;10.38;100.00
33155;BME280;19511;42.682;23.332;2023-04-25T04:55:01;94293.13;;;10.28;100.00
33155;BME280;19511;42.682;23.332;2023-04-25T04:57:28;94312.81;;;10.30;100.00
33155;BME280;19511;42.682;23.332;2023-04-25T04:59:53;94305.03;;;10.25;100.00
33155;BME280;19511;42.682;23.332;2023-04-25T05:02:19;94318.84;;;10.25;100.00
33155;BME280;19511;42.682;23.332;2023-04-25T05:04:44;94326.19;;;10.32;100.00
33155;BME280;19511;42.682;23.332;2023-04-25T05:07:10;94318.06;;;10.24;100.00
33155;BME280;19511;42.682;23.332;2023-04-25T05:09:36;94308.94;;;10.27;100.00
33155;BME280;19511;42.682;23.332;2023-04-25T05:12:02;94238.75;;;9.68;100.00
33155;BME280;19511;42.682;23.332;2023-04-25T05:14:28;94334.94;;;10.30;100.00
33155;BME280;19511;42.682;23.332;2023-04-25T05:16:53;94332.16;;;10.30;100.00
33155;BME280;19511;42.682;23.332;2023-04-25T05:19:19;94311.47;;;10.18;100.00
33155;BME280;19511;42.682;23.332;2023-04-25T05:21:44;94323.09;;;10.29;100.00
33155;BME280;19511;42.682;23.332;2023-04-25T05:24:13;94315.88;;;10.16;100.00
33155;BME280;19511;42.682;23.332;2023-04-25T05:26:41;94329.47;;;10.26;100.00
33155;BME280;19511;42.682;23.332;2023-04-25T05:29:07;94316.72;;;10.33;100.00
33155;BME280;19511;42.682;23.332;2023-04-25T05:31:32;94321.69;;;10.41;100.00
33155;BME280;19511;42.682;23.332;2023-04-25T05:33:58;94322.72;;;10.48;100.00
33155;BME280;19511;42.682;23.332;2023-04-25T05:36:26;94223.88;;;9.82;100.00
33155;BME280;19511;42.682;23.332;2023-04-25T05:38:52;94329.78;;;10.49;100.00
33155;BME280;19511;42.682;23.332;2023-04-25T05:41:17;94318.75;;;10.49;100.00
33155;BME280;19511;42.682;23.332;2023-04-25T05:43:43;94220.59;;;9.87;100.00
33155;BME280;19511;42.682;23.332;2023-04-25T05:46:12;94286.59;;;10.38;100.00
33155;BME280;19511;42.682;23.332;2023-04-25T05:48:38;94222.78;;;9.96;100.00
33155;BME280;19511;42.682;23.332;2023-04-25T05:51:03;94309.84;;;10.74;100.00
33155;BME280;19511;42.682;23.332;2023-04-25T05:53:33;94325.94;;;10.79;100.00
33155;BME280;19511;42.682;23.332;2023-04-25T05:55:58;94323.97;;;10.96;100.00
33155;BME280;19511;42.682;23.332;2023-04-25T05:58:24;94330.84;;;11.04;100.00
33155;BME280;19511;42.682;23.332;2023-04-25T06:00:49;94312.00;;;10.99;100.00
33155;BME280;19511;42.682;23.332;2023-04-25T06:03:15;94320.75;;;10.98;100.00
33155;BME280;19511;42.682;23.332;2023-04-25T06:05:41;94312.88;;;10.96;100.00
33155;BME280;19511;42.682;23.332;2023-04-25T06:08:07;94315.66;;;11.13;100.00
33155;BME280;19511;42.682;23.332;2023-04-25T06:10:33;94328.16;;;11.17;100.00
33155;BME280;19511;42.682;23.332;2023-04-25T06:12:58;94309.22;;;11.16;100.00
33155;BME280;19511;42.682;23.332;2023-04-25T06:15:24;94318.22;;;11.20;100.00
33155;BME280;19511;42.682;23.332;2023-04-25T06:17:50;94319.41;;;11.35;100.00
33155;BME280;19511;42.682;23.332;2023-04-25T06:20:15;94300.91;;;11.32;100.00
33155;BME280;19511;42.682;23.332;2023-04-25T06:22:41;94315.06;;;11.51;100.00
33155;BME280;19511;42.682;23.332;2023-04-25T06:25:07;94228.91;;;11.03;100.00
33155;BME280;19511;42.682;23.332;2023-04-25T06:27:33;94333.75;;;11.47;100.00
33155;BME280;19511;42.682;23.332;2023-04-25T06:29:58;94239.94;;;10.73;100.00
33155;BME280;19511;42.682;23.332;2023-04-25T06:32:24;94325.50;;;11.30;100.00
33155;BME280;19511;42.682;23.332;2023-04-25T06:34:51;94326.41;;;11.40;100.00
33155;BME280;19511;42.682;23.332;2023-04-25T06:37:16;94330.06;;;11.37;100.00
33155;BME280;19511;42.682;23.332;2023-04-25T06:39:42;94337.75;;;11.46;100.00
33155;BME280;19511;42.682;23.332;2023-04-25T06:42:07;94232.16;;;10.85;100.00
33155;BME280;19511;42.682;23.332;2023-04-25T06:44:33;94333.22;;;11.52;100.00
33155;BME280;19511;42.682;23.332;2023-04-25T06:46:58;94268.56;;;11.29;100.00
33155;BME280;19511;42.682;23.332;2023-04-25T06:49:24;94231.50;;;11.39;100.00
33155;BME280;19511;42.682;23.332;2023-04-25T06:51:49;94310.91;;;12.01;100.00
33155;BME280;19511;42.682;23.332;2023-04-25T06:54:15;94334.53;;;12.19;100.00
33155;BME280;19511;42.682;23.332;2023-04-25T06:56:40;94314.00;;;12.03;100.00
33155;BME280;19511;42.682;23.332;2023-04-25T06:59:06;94309.34;;;12.00;100.00
33155;BME280;19511;42.682;23.332;2023-04-25T07:01:32;94298.31;;;12.26;100.00
33155;BME280;19511;42.682;23.332;2023-04-25T07:03:57;94230.31;;;11.96;100.00
33155;BME280;19511;42.682;23.332;2023-04-25T07:06:23;94298.31;;;12.52;100.00
33155;BME280;19511;42.682;23.332;2023-04-25T07:08:48;94323.63;;;12.54;100.00
33155;BME280;19511;42.682;23.332;2023-04-25T07:11:13;94321.28;;;12.52;100.00
33155;BME280;19511;42.682;23.332;2023-04-25T07:13:39;94305.66;;;12.46;100.00
33155;BME280;19511;42.682;23.332;2023-04-25T07:16:05;94310.28;;;12.62;100.00
33155;BME280;19511;42.682;23.332;2023-04-25T07:18:33;94316.19;;;12.77;100.00
33155;BME280;19511;42.682;23.332;2023-04-25T07:20:58;94310.97;;;12.79;100.00
33155;BME280;19511;42.682;23.332;2023-04-25T07:23:23;94299.44;;;12.67;100.00
33155;BME280;19511;42.682;23.332;2023-04-25T07:25:49;94307.41;;;12.65;100.00
33155;BME280;19511;42.682;23.332;2023-04-25T07:28:18;94301.97;;;12.36;100.00
33155;BME280;19511;42.682;23.332;2023-04-25T07:30:46;94310.31;;;12.49;100.00
33155;BME280;19511;42.682;23.332;2023-04-25T07:33:12;94308.31;;;12.62;100.00
33155;BME280;19511;42.682;23.332;2023-04-25T07:35:37;94312.94;;;12.91;100.00
33155;BME280;19511;42.682;23.332;2023-04-25T07:38:02;94285.97;;;12.92;100.00
33155;BME280;19511;42.682;23.332;2023-04-25T07:40:28;94205.28;;;12.38;100.00
33155;BME280;19511;42.682;23.332;2023-04-25T07:42:54;94296.78;;;13.25;100.00
33155;BME280;19511;42.682;23.332;2023-04-25T07:45:19;94300.31;;;13.25;100.00
33155;BME280;19511;42.682;23.332;2023-04-25T07:47:45;94301.75;;;13.43;100.00
33155;BME280;19511;42.682;23.332;2023-04-25T07:50:15;94281.72;;;13.48;100.00
33155;BME280;19511;42.682;23.332;2023-04-25T07:52:40;94271.25;;;13.52;100.00
33155;BME280;19511;42.682;23.332;2023-04-25T07:55:06;94292.72;;;13.74;100.00
33155;BME280;19511;42.682;23.332;2023-04-25T07:57:31;94291.13;;;13.85;100.00
33155;BME280;19511;42.682;23.332;2023-04-25T07:59:57;94280.72;;;13.77;100.00
33155;BME280;19511;42.682;23.332;2023-04-25T08:02:22;94283.41;;;13.90;100.00
33155;BME280;19511;42.682;23.332;2023-04-25T08:04:47;94279.03;;;13.79;100.00
33155;BME280;19511;42.682;23.332;2023-04-25T08:07:14;94192.59;;;13.20;100.00
33155;BME280;19511;42.682;23.332;2023-04-25T08:09:40;94233.66;;;13.60;100.00
33155;BME280;19511;42.682;23.332;2023-04-25T08:12:05;94247.06;;;13.84;100.00
33155;BME280;19511;42.682;23.332;2023-04-25T08:14:31;94203.78;;;13.74;100.00
33155;BME280;19511;42.682;23.332;2023-04-25T08:17:02;94279.72;;;14.15;100.00
33155;BME280;19511;42.682;23.332;2023-04-25T08:19:31;94278.28;;;14.42;100.00
33155;BME280;19511;42.682;23.332;2023-04-25T08:21:56;94267.38;;;14.57;100.00
33155;BME280;19511;42.682;23.332;2023-04-25T08:24:22;94257.34;;;14.59;100.00
33155;BME280;19511;42.682;23.332;2023-04-25T08:26:48;94194.50;;;14.30;100.00
33155;BME280;19511;42.682;23.332;2023-04-25T08:29:14;94261.19;;;15.02;100.00
33155;BME280;19511;42.682;23.332;2023-04-25T08:31:40;94249.47;;;15.45;100.00
33155;BME280;19511;42.682;23.332;2023-04-25T08:34:09;94250.38;;;15.60;100.00
33155;BME280;19511;42.682;23.332;2023-04-25T08:36:36;94236.59;;;15.10;100.00
33155;BME280;19511;42.682;23.332;2023-04-25T08:39:03;94259.00;;;14.88;100.00
33155;BME280;19511;42.682;23.332;2023-04-25T08:41:33;94264.84;;;14.40;100.00
33155;BME280;19511;42.682;23.332;2023-04-25T08:43:59;94252.50;;;14.10;100.00
33155;BME280;19511;42.682;23.332;2023-04-25T08:46:26;94280.94;;;14.14;100.00
33155;BME280;19511;42.682;23.332;2023-04-25T08:48:53;94193.69;;;13.22;100.00
33155;BME280;19511;42.682;23.332;2023-04-25T08:51:22;94275.41;;;13.69;100.00
33155;BME280;19511;42.682;23.332;2023-04-25T08:53:51;94218.50;;;13.17;100.00
33155;BME280;19511;42.682;23.332;2023-04-25T08:56:17;94261.50;;;13.47;100.00
33155;BME280;19511;42.682;23.332;2023-04-25T08:58:43;94274.44;;;13.63;100.00
33155;BME280;19511;42.682;23.332;2023-04-25T09:01:11;94191.91;;;13.29;100.00
33155;BME280;19511;42.682;23.332;2023-04-25T09:03:36;94174.75;;;13.43;100.00
33155;BME280;19511;42.682;23.332;2023-04-25T09:06:03;94257.69;;;13.98;100.00
33155;BME280;19511;42.682;23.332;2023-04-25T09:08:29;94199.03;;;13.74;100.00
33155;BME280;19511;42.682;23.332;2023-04-25T09:10:55;94185.06;;;13.65;100.00
33155;BME280;19511;42.682;23.332;2023-04-25T09:13:25;94162.63;;;13.50;100.00
33155;BME280;19511;42.682;23.332;2023-04-25T09:15:54;94252.06;;;14.20;100.00
33155;BME280;19511;42.682;23.332;2023-04-25T09:18:29;94250.81;;;14.44;100.00
33155;BME280;19511;42.682;23.332;2023-04-25T09:23:31;94227.03;;;15.11;100.00
33155;BME280;19511;42.682;23.332;2023-04-25T09:26:03;94233.84;;;15.47;100.00
33155;BME280;19511;42.682;23.332;2023-04-25T09:28:34;94226.84;;;15.61;100.00
33155;BME280;19511;42.682;23.332;2023-04-25T09:31:00;94234.47;;;15.61;100.00
33155;BME280;19511;42.682;23.332;2023-04-25T09:33:33;94237.25;;;15.51;100.00
33155;BME280;19511;42.682;23.332;2023-04-25T09:36:06;94230.44;;;15.43;100.00
33155;BME280;19511;42.682;23.332;2023-04-25T09:38:39;94147.88;;;14.62;100.00
33155;BME280;19511;42.682;23.332;2023-04-25T09:41:09;94211.06;;;15.12;100.00
33155;BME280;19511;42.682;23.332;2023-04-25T09:43:36;94139.59;;;14.90;100.00
33155;BME280;19511;42.682;23.332;2023-04-25T09:46:02;94218.00;;;15.91;100.00
33155;BME280;19511;42.682;23.332;2023-04-25T09:48:32;94084.03;;;15.24;100.00
33155;BME280;19511;42.682;23.332;2023-04-25T09:53:30;94211.47;;;16.46;100.00
33155;BME280;19511;42.682;23.332;2023-04-25T09:55:59;94208.19;;;16.81;100.00
33155;BME280;19511;42.682;23.332;2023-04-25T09:58:25;94219.88;;;17.04;100.00
33155;BME280;19511;42.682;23.332;2023-04-25T10:00:59;94207.06;;;17.36;100.00
33155;BME280;19511;42.682;23.332;2023-04-25T10:03:25;94218.97;;;17.46;100.00
33155;BME280;19511;42.682;23.332;2023-04-25T10:05:52;94203.16;;;17.19;100.00
33155;BME280;19511;42.682;23.332;2023-04-25T10:08:19;94213.88;;;16.62;100.00
33155;BME280;19511;42.682;23.332;2023-04-25T10:10:46;94213.75;;;16.23;100.00
33155;BME280;19511;42.682;23.332;2023-04-25T10:13:12;94214.69;;;16.11;100.00
33155;BME280;19511;42.682;23.332;2023-04-25T10:15:40;94200.66;;;15.77;100.00
33155;BME280;19511;42.682;23.332;2023-04-25T10:18:07;94247.88;;;15.99;100.00
33155;BME280;19511;42.682;23.332;2023-04-25T10:20:32;94262.63;;;15.91;100.00
33155;BME280;19511;42.682;23.332;2023-04-25T10:23:13;94222.94;;;14.75;100.00
33155;BME280;19511;42.682;23.332;2023-04-25T10:25:40;94215.03;;;13.92;100.00
33155;BME280;19511;42.682;23.332;2023-04-25T10:28:06;94224.19;;;14.02;100.00
33155;BME280;19511;42.682;23.332;2023-04-25T10:30:34;94129.72;;;13.80;100.00
33155;BME280;19511;42.682;23.332;2023-04-25T10:32:59;94128.34;;;14.34;100.00
33155;BME280;19511;42.682;23.332;2023-04-25T10:35:27;94216.66;;;15.40;100.00
33155;BME280;19511;42.682;23.332;2023-04-25T10:38:13;94121.66;;;15.19;100.00
33155;BME280;19511;42.682;23.332;2023-04-25T10:40:39;94224.31;;;16.10;100.00
33155;BME280;19511;42.682;23.332;2023-04-25T10:43:34;94218.50;;;15.71;100.00
33155;BME280;19511;42.682;23.332;2023-04-25T10:46:00;94212.91;;;15.89;100.00
33155;BME280;19511;42.682;23.332;2023-04-25T10:48:29;94213.84;;;15.86;100.00
33155;BME280;19511;42.682;23.332;2023-04-25T10:51:28;94211.50;;;15.94;100.00
33155;BME280;19511;42.682;23.332;2023-04-25T10:53:57;94207.63;;;15.91;100.00
33155;BME280;19511;42.682;23.332;2023-04-25T11:01:39;94203.31;;;15.90;100.00
33155;BME280;19511;42.682;23.332;2023-04-25T11:04:05;94198.91;;;16.08;100.00
33155;BME280;19511;42.682;23.332;2023-04-25T11:08:57;94185.56;;;16.45;100.00
33155;BME280;19511;42.682;23.332;2023-04-25T11:11:25;94189.59;;;16.78;100.00
33155;BME280;19511;42.682;23.332;2023-04-25T11:13:51;94169.97;;;16.87;100.00
33155;BME280;19511;42.682;23.332;2023-04-25T11:16:17;94176.97;;;16.92;100.00
33155;BME280;19511;42.682;23.332;2023-04-25T11:18:43;94179.88;;;17.22;100.00
33155;BME280;19511;42.682;23.332;2023-04-25T11:21:10;94169.44;;;17.22;100.00
33155;BME280;19511;42.682;23.332;2023-04-25T11:23:37;94174.72;;;17.05;97.60
33155;BME280;19511;42.682;23.332;2023-04-25T11:26:03;94179.31;;;16.84;98.84
33155;BME280;19511;42.682;23.332;2023-04-25T11:28:31;94188.22;;;16.73;100.00
33155;BME280;19511;42.682;23.332;2023-04-25T11:30:59;94185.38;;;16.58;100.00
33155;BME280;19511;42.682;23.332;2023-04-25T11:33:25;94172.16;;;16.35;100.00
33155;BME280;19511;42.682;23.332;2023-04-25T11:35:55;94195.50;;;16.13;100.00
33155;BME280;19511;42.682;23.332;2023-04-25T11:38:24;94186.53;;;15.99;100.00
33155;BME280;19511;42.682;23.332;2023-04-25T11:40:52;94185.34;;;15.82;100.00
33155;BME280;19511;42.682;23.332;2023-04-25T11:43:20;94206.69;;;15.94;100.00
33155;BME280;19511;42.682;23.332;2023-04-25T11:45:48;94179.19;;;15.59;100.00
33155;BME280;19511;42.682;23.332;2023-04-25T11:48:18;94222.22;;;15.67;100.00
33155;BME280;19511;42.682;23.332;2023-04-25T11:50:43;94223.75;;;15.50;100.00
33155;BME280;19511;42.682;23.332;2023-04-25T11:53:09;94212.94;;;15.24;100.00
33155;BME280;19511;42.682;23.332;2023-04-25T11:55:36;94207.22;;;15.09;100.00
33155;BME280;19511;42.682;23.332;2023-04-25T11:58:03;94211.84;;;14.94;100.00
33155;BME280;19511;42.682;23.332;2023-04-25T12:00:29;94203.00;;;14.86;100.00
33155;BME280;19511;42.682;23.332;2023-04-25T12:02:56;94201.78;;;15.06;100.00
33155;BME280;19511;42.682;23.332;2023-04-25T12:05:29;94196.69;;;14.95;100.00
33155;BME280;19511;42.682;23.332;2023-04-25T12:07:56;94189.59;;;15.12;100.00
33155;BME280;19511;42.682;23.332;2023-04-25T12:10:25;94192.53;;;15.09;100.00
33155;BME280;19511;42.682;23.332;2023-04-25T12:12:57;94091.28;;;14.47;100.00
33155;BME280;19511;42.682;23.332;2023-04-25T12:15:25;94178.75;;;14.96;100.00
33155;BME280;19511;42.682;23.332;2023-04-25T12:17:53;94175.25;;;14.64;100.00
33155;BME280;19511;42.682;23.332;2023-04-25T12:20:29;94176.09;;;14.92;100.00
33155;BME280;19511;42.682;23.332;2023-04-25T12:22:57;94191.25;;;14.91;100.00
33155;BME280;19511;42.682;23.332;2023-04-25T12:25:42;94188.00;;;14.93;100.00
33155;BME280;19511;42.682;23.332;2023-04-25T12:31:03;94187.88;;;14.96;100.00
33155;BME280;19511;42.682;23.332;2023-04-25T12:33:31;94190.50;;;14.91;100.00
33155;BME280;19511;42.682;23.332;2023-04-25T12:35:57;94222.81;;;14.97;100.00
33155;BME280;19511;42.682;23.332;2023-04-25T12:38:24;94248.50;;;14.11;100.00
33155;BME280;19511;42.682;23.332;2023-04-25T12:40:58;94239.56;;;13.27;100.00
33155;BME280;19511;42.682;23.332;2023-04-25T12:43:28;94267.78;;;12.78;100.00
33155;BME280;19511;42.682;23.332;2023-04-25T12:45:55;94276.38;;;12.45;100.00
33155;BME280;19511;42.682;23.332;2023-04-25T12:48:21;94181.25;;;11.67;100.00
33155;BME280;19511;42.682;23.332;2023-04-25T12:50:47;94269.47;;;12.11;100.00
33155;BME280;19511;42.682;23.332;2023-04-25T12:53:18;94274.09;;;12.14;100.00
33155;BME280;19511;42.682;23.332;2023-04-25T12:55:44;94272.56;;;12.13;100.00
33155;BME280;19511;42.682;23.332;2023-04-25T12:58:12;94262.19;;;11.87;100.00
33155;BME280;19511;42.682;23.332;2023-04-25T13:00:38;94278.88;;;12.00;100.00